sensor_id;sensor_type;location;lat;lon;timestamp;pressure;altitude;pressure_sealevel;temperature;humidity
44441;BME280;30146;52.268;20.944;2023-08-06T00:00:53;99220.61;;;20.07;77.35
44441;BME280;30146;52.268;20.944;2023-08-06T00:03:24;99217.31;;;20.07;77.49
44441;BME280;30146;52.268;20.944;2023-08-06T00:05:56;99206.77;;;20.07;77.50
44441;BME280;30146;52.268;20.944;2023-08-06T00:08:27;99203.38;;;20.06;77.42
44441;BME280;30146;52.268;20.944;2023-08-06T00:11:01;99203.94;;;20.05;77.47
44441;BME280;30146;52.268;20.944;2023-08-06T00:13:32;99203.75;;;20.05;77.75
44441;BME280;30146;52.268;20.944;2023-08-06T00:16:11;99204.98;;;20.05;77.76
44441;BME280;30146;52.268;20.944;2023-08-06T00:18:43;99216.73;;;20.06;77.95
44441;BME280;30146;52.268;20.944;2023-08-06T00:21:14;99229.07;;;20.06;77.97
44441;BME280;30146;52.268;20.944;2023-08-06T00:23:45;99235.50;;;20.06;77.99
44441;BME280;30146;52.268;20.944;2023-08-06T00:26:18;99237.55;;;20.06;78.08
44441;BME280;30146;52.268;20.944;2023-08-06T00:28:49;99233.49;;;20.07;78.23
44441;BME280;30146;52.268;20.944;2023-08-06T00:31:23;99232.67;;;20.06;78.17
44441;BME280;30146;52.268;20.944;2023-08-06T00:33:54;99229.70;;;20.06;78.19
44441;BME280;30146;52.268;20.944;2023-08-06T00:36:26;99222.96;;;20.06;78.13
44441;BME280;30146;52.268;20.944;2023-08-06T00:38:57;99201.15;;;20.05;78.26
44441;BME280;30146;52.268;20.944;2023-08-06T00:41:28;99188.34;;;20.05;78.08
44441;BME280;30146;52.268;20.944;2023-08-06T00:43:59;99189.91;;;20.05;78.24
44441;BME280;30146;52.268;20.944;2023-08-06T00:46:30;99189.89;;;20.05;78.35
44441;BME280;30146;52.268;20.944;2023-08-06T00:49:02;99190.41;;;20.05;78.33
44441;BME280;30146;52.268;20.944;2023-08-06T00:51:34;99182.67;;;20.04;78.20
44441;BME280;30146;52.268;20.944;2023-08-06T00:54:05;99170.44;;;20.03;78.22
44441;BME280;30146;52.268;20.944;2023-08-06T00:56:38;99165.08;;;20.03;78.14
44441;BME280;30146;52.268;20.944;2023-08-06T00:59:10;99156.77;;;20.02;78.15
44441;BME280;30146;52.268;20.944;2023-08-06T01:01:41;99135.79;;;20.02;78.30
44441;BME280;30146;52.268;20.944;2023-08-06T01:04:13;99126.42;;;20.02;78.35
44441;BME280;30146;52.268;20.944;2023-08-06T01:06:47;99124.02;;;20.02;78.27
44441;BME280;30146;52.268;20.944;2023-08-06T01:09:21;99116.11;;;20.01;78.40
44441;BME280;30146;52.268;20.944;2023-08-06T01:12:04;99103.81;;;19.98;78.18
44441;BME280;30146;52.268;20.944;2023-08-06T01:14:44;99098.92;;;19.96;78.29
44441;BME280;30146;52.268;20.944;2023-08-06T01:17:16;99091.70;;;19.95;78.39
44441;BME280;30146;52.268;20.944;2023-08-06T01:19:47;99084.13;;;19.94;78.34
44441;BME280;30146;52.268;20.944;2023-08-06T01:22:18;99076.89;;;19.93;78.38
44441;BME280;30146;52.268;20.944;2023-08-06T01:24:51;99069.13;;;19.95;78.54
44441;BME280;30146;52.268;20.944;2023-08-06T01:27:28;99051.79;;;19.95;78.54
44441;BME280;30146;52.268;20.944;2023-08-06T01:30:06;99030.05;;;19.96;78.48
44441;BME280;30146;52.268;20.944;2023-08-06T01:32:43;99018.84;;;19.98;78.59
44441;BME280;30146;52.268;20.944;2023-08-06T01:35:17;99011.45;;;19.99;78.68
44441;BME280;30146;52.268;20.944;2023-08-06T01:37:50;99009.39;;;19.99;78.54
44441;BME280;30146;52.268;20.944;2023-08-06T01:40:21;99001.34;;;20.00;78.51
44441;BME280;30146;52.268;20.944;2023-08-06T01:42:52;98988.88;;;19.99;78.47
44441;BME280;30146;52.268;20.944;2023-08-06T01:45:24;98983.86;;;19.99;78.54
44441;BME280;30146;52.268;20.944;2023-08-06T01:47:56;98971.42;;;19.99;78.51
44441;BME280;30146;52.268;20.944;2023-08-06T01:50:28;98968.30;;;19.99;78.68
44441;BME280;30146;52.268;20.944;2023-08-06T01:53:00;98960.37;;;19.98;78.53
44441;BME280;30146;52.268;20.944;2023-08-06T01:55:32;98954.69;;;19.97;78.66
44441;BME280;30146;52.268;20.944;2023-08-06T01:58:03;98953.02;;;19.96;78.70
44441;BME280;30146;52.268;20.944;2023-08-06T02:00:34;98946.96;;;19.96;78.67
44441;BME280;30146;52.268;20.944;2023-08-06T02:03:05;98949.13;;;19.95;78.55
44441;BME280;30146;52.268;20.944;2023-08-06T02:05:36;98952.52;;;19.94;78.54
44441;BME280;30146;52.268;20.944;2023-08-06T02:08:08;98957.70;;;19.92;78.58
44441;BME280;30146;52.268;20.944;2023-08-06T02:10:39;98954.23;;;19.89;78.57
44441;BME280;30146;52.268;20.944;2023-08-06T02:13:11;98947.92;;;19.88;78.73
44441;BME280;30146;52.268;20.944;2023-08-06T02:15:45;98944.91;;;19.89;78.93
44441;BME280;30146;52.268;20.944;2023-08-06T02:18:17;98946.91;;;19.90;78.97
44441;BME280;30146;52.268;20.944;2023-08-06T02:20:57;98937.52;;;19.90;79.02
44441;BME280;30146;52.268;20.944;2023-08-06T02:23:28;98927.35;;;19.89;78.96
44441;BME280;30146;52.268;20.944;2023-08-06T02:26:01;98916.20;;;19.88;78.93
44441;BME280;30146;52.268;20.944;2023-08-06T02:28:32;98920.52;;;19.87;79.11
44441;BME280;30146;52.268;20.944;2023-08-06T02:31:03;98913.02;;;19.89;79.22
44441;BME280;30146;52.268;20.944;2023-08-06T02:33:38;98912.35;;;19.88;79.14
44441;BME280;30146;52.268;20.944;2023-08-06T02:36:09;98915.50;;;19.88;79.14
44441;BME280;30146;52.268;20.944;2023-08-06T02:38:40;98923.52;;;19.87;79.21
44441;BME280;30146;52.268;20.944;2023-08-06T02:41:11;98925.46;;;19.87;79.21
44441;BME280;30146;52.268;20.944;2023-08-06T02:43:42;98924.48;;;19.86;79.22
44441;BME280;30146;52.268;20.944;2023-08-06T02:46:13;98921.55;;;19.85;79.46
44441;BME280;30146;52.268;20.944;2023-08-06T02:48:44;98919.63;;;19.86;79.56
44441;BME280;30146;52.268;20.944;2023-08-06T02:51:15;98911.20;;;19.87;79.65
44441;BME280;30146;52.268;20.944;2023-08-06T02:53:47;98903.55;;;19.87;79.67
44441;BME280;30146;52.268;20.944;2023-08-06T02:56:18;98898.09;;;19.89;79.76
44441;BME280;30146;52.268;20.944;2023-08-06T02:58:59;98900.32;;;19.89;79.68
44441;BME280;30146;52.268;20.944;2023-08-06T03:01:48;98898.16;;;19.88;79.78
44441;BME280;30146;52.268;20.944;2023-08-06T03:04:25;98890.91;;;19.87;79.79
44441;BME280;30146;52.268;20.944;2023-08-06T03:06:56;98882.95;;;19.87;79.93
44441;BME280;30146;52.268;20.944;2023-08-06T03:09:29;98873.38;;;19.88;79.92
44441;BME280;30146;52.268;20.944;2023-08-06T03:12:01;98864.16;;;19.88;79.97
44441;BME280;30146;52.268;20.944;2023-08-06T03:14:32;98860.11;;;19.89;79.99
44441;BME280;30146;52.268;20.944;2023-08-06T03:17:04;98855.41;;;19.89;80.01
44441;BME280;30146;52.268;20.944;2023-08-06T03:19:36;98852.46;;;19.91;80.23
44441;BME280;30146;52.268;20.944;2023-08-06T03:22:07;98852.87;;;19.93;80.25
44441;BME280;30146;52.268;20.944;2023-08-06T03:24:39;98843.33;;;19.93;80.13
44441;BME280;30146;52.268;20.944;2023-08-06T03:27:11;98839.29;;;19.93;80.23
44441;BME280;30146;52.268;20.944;2023-08-06T03:29:43;98836.10;;;19.95;80.25
44441;BME280;30146;52.268;20.944;2023-08-06T03:32:15;98830.99;;;19.96;80.41
44441;BME280;30146;52.268;20.944;2023-08-06T03:34:48;98828.67;;;19.96;80.31
44441;BME280;30146;52.268;20.944;2023-08-06T03:37:21;98822.02;;;19.97;80.37
44441;BME280;30146;52.268;20.944;2023-08-06T03:39:53;98812.11;;;19.98;80.49
44441;BME280;30146;52.268;20.944;2023-08-06T03:42:24;98804.35;;;19.99;80.62
44441;BME280;30146;52.268;20.944;2023-08-06T03:44:55;98795.53;;;20.02;80.62
44441;BME280;30146;52.268;20.944;2023-08-06T03:47:26;98784.39;;;20.02;80.48
44441;BME280;30146;52.268;20.944;2023-08-06T03:49:57;98775.06;;;20.02;80.53
44441;BME280;30146;52.268;20.944;2023-08-06T03:52:28;98771.05;;;20.02;80.54
44441;BME280;30146;52.268;20.944;2023-08-06T03:54:59;98768.82;;;20.02;80.62
44441;BME280;30146;52.268;20.944;2023-08-06T03:57:30;98761.23;;;20.01;80.57
44441;BME280;30146;52.268;20.944;2023-08-06T04:00:01;98759.24;;;20.02;80.80
44441;BME280;30146;52.268;20.944;2023-08-06T04:02:43;98750.23;;;20.02;80.86
44441;BME280;30146;52.268;20.944;2023-08-06T04:05:15;98748.98;;;20.03;80.85
44441;BME280;30146;52.268;20.944;2023-08-06T04:07:46;98742.04;;;20.03;80.89
44441;BME280;30146;52.268;20.944;2023-08-06T04:10:17;98733.11;;;20.04;80.92
44441;BME280;30146;52.268;20.944;2023-08-06T04:12:48;98730.27;;;20.05;81.08
44441;BME280;30146;52.268;20.944;2023-08-06T04:15:19;98726.77;;;20.05;81.13
44441;BME280;30146;52.268;20.944;2023-08-06T04:17:50;98717.75;;;20.05;81.00
44441;BME280;30146;52.268;20.944;2023-08-06T04:20:21;98718.02;;;20.06;81.26
44441;BME280;30146;52.268;20.944;2023-08-06T04:22:53;98714.61;;;20.08;81.34
44441;BME280;30146;52.268;20.944;2023-08-06T04:25:24;98713.42;;;20.09;81.40
44441;BME280;30146;52.268;20.944;2023-08-06T04:27:55;98711.83;;;20.10;81.19
44441;BME280;30146;52.268;20.944;2023-08-06T04:30:26;98710.73;;;20.08;81.05
44441;BME280;30146;52.268;20.944;2023-08-06T04:32:59;98704.79;;;20.07;81.25
44441;BME280;30146;52.268;20.944;2023-08-06T04:35:30;98702.14;;;20.05;81.17
44441;BME280;30146;52.268;20.944;2023-08-06T04:38:01;98700.42;;;20.05;81.38
44441;BME280;30146;52.268;20.944;2023-08-06T04:40:34;98699.66;;;20.03;81.41
44441;BME280;30146;52.268;20.944;2023-08-06T04:43:06;98697.94;;;20.03;81.60
44441;BME280;30146;52.268;20.944;2023-08-06T04:45:37;98697.73;;;20.04;81.58
44441;BME280;30146;52.268;20.944;2023-08-06T04:48:08;98694.11;;;20.03;81.61
44441;BME280;30146;52.268;20.944;2023-08-06T04:50:41;98695.30;;;20.04;81.72
44441;BME280;30146;52.268;20.944;2023-08-06T04:53:13;98687.13;;;20.04;81.88
44441;BME280;30146;52.268;20.944;2023-08-06T04:55:44;98684.14;;;20.05;81.85
44441;BME280;30146;52.268;20.944;2023-08-06T04:58:16;98680.77;;;20.08;82.04
44441;BME280;30146;52.268;20.944;2023-08-06T05:00:47;98674.97;;;20.11;82.13
44441;BME280;30146;52.268;20.944;2023-08-06T05:03:18;98670.52;;;20.15;82.08
44441;BME280;30146;52.268;20.944;2023-08-06T05:05:48;98666.59;;;20.18;82.02
44441;BME280;30146;52.268;20.944;2023-08-06T05:08:19;98663.84;;;20.25;82.29
44441;BME280;30146;52.268;20.944;2023-08-06T05:10:50;98663.27;;;20.30;82.09
44441;BME280;30146;52.268;20.944;2023-08-06T05:13:21;98657.47;;;20.38;82.36
44441;BME280;30146;52.268;20.944;2023-08-06T05:15:54;98651.02;;;20.50;82.45
44441;BME280;30146;52.268;20.944;2023-08-06T05:18:25;98644.01;;;20.69;82.77
44441;BME280;30146;52.268;20.944;2023-08-06T05:20:56;98639.36;;;20.91;83.01
44441;BME280;30146;52.268;20.944;2023-08-06T05:23:27;98644.98;;;21.18;83.12
44441;BME280;30146;52.268;20.944;2023-08-06T05:25:58;98639.64;;;21.46;82.92
44441;BME280;30146;52.268;20.944;2023-08-06T05:28:29;98638.89;;;21.74;82.80
44441;BME280;30146;52.268;20.944;2023-08-06T05:31:04;98636.06;;;22.14;82.47
44441;BME280;30146;52.268;20.944;2023-08-06T05:33:33;98636.40;;;22.47;81.81
44441;BME280;30146;52.268;20.944;2023-08-06T05:36:05;98633.71;;;22.97;81.85
44441;BME280;30146;52.268;20.944;2023-08-06T05:38:36;98630.55;;;23.34;80.93
44441;BME280;30146;52.268;20.944;2023-08-06T05:41:07;98626.17;;;23.91;80.98
44441;BME280;30146;52.268;20.944;2023-08-06T05:43:38;98617.59;;;24.36;79.29
44441;BME280;30146;52.268;20.944;2023-08-06T05:46:09;98616.05;;;24.67;77.82
44441;BME280;30146;52.268;20.944;2023-08-06T05:48:40;98608.92;;;25.26;77.51
44441;BME280;30146;52.268;20.944;2023-08-06T05:51:11;98602.15;;;25.97;77.28
44441;BME280;30146;52.268;20.944;2023-08-06T05:53:43;98597.27;;;26.77;76.69
44441;BME280;30146;52.268;20.944;2023-08-06T05:56:15;98596.09;;;27.58;75.22
44441;BME280;30146;52.268;20.944;2023-08-06T05:58:46;98591.17;;;28.19;72.89
44441;BME280;30146;52.268;20.944;2023-08-06T06:01:18;98586.70;;;28.74;71.62
44441;BME280;30146;52.268;20.944;2023-08-06T06:03:54;98590.10;;;29.32;69.93
44441;BME280;30146;52.268;20.944;2023-08-06T06:06:25;98587.46;;;29.62;67.81
44441;BME280;30146;52.268;20.944;2023-08-06T06:08:57;98581.76;;;30.02;66.93
44441;BME280;30146;52.268;20.944;2023-08-06T06:11:29;98584.15;;;30.49;65.79
44441;BME280;30146;52.268;20.944;2023-08-06T06:14:01;98581.23;;;30.90;64.25
44441;BME280;30146;52.268;20.944;2023-08-06T06:16:32;98586.27;;;31.19;62.87
44441;BME280;30146;52.268;20.944;2023-08-06T06:19:04;98577.33;;;31.45;62.13
44441;BME280;30146;52.268;20.944;2023-08-06T06:21:35;98571.00;;;31.70;61.82
44441;BME280;30146;52.268;20.944;2023-08-06T06:24:07;98570.77;;;32.07;61.05
44441;BME280;30146;52.268;20.944;2023-08-06T06:26:39;98568.03;;;32.35;59.78
44441;BME280;30146;52.268;20.944;2023-08-06T06:29:10;98563.23;;;32.56;58.80
44441;BME280;30146;52.268;20.944;2023-08-06T06:31:41;98557.92;;;32.71;58.10
44441;BME280;30146;52.268;20.944;2023-08-06T06:34:13;98549.64;;;32.78;57.40
44441;BME280;30146;52.268;20.944;2023-08-06T06:36:44;98550.71;;;32.89;56.54
44441;BME280;30146;52.268;20.944;2023-08-06T06:39:15;98551.54;;;32.86;55.94
44441;BME280;30146;52.268;20.944;2023-08-06T06:41:46;98549.45;;;32.73;55.02
44441;BME280;30146;52.268;20.944;2023-08-06T06:44:24;98548.23;;;32.32;53.48
44441;BME280;30146;52.268;20.944;2023-08-06T06:46:59;98547.22;;;32.32;54.03
44441;BME280;30146;52.268;20.944;2023-08-06T06:49:30;98541.40;;;32.41;54.02
44441;BME280;30146;52.268;20.944;2023-08-06T06:52:01;98535.73;;;32.52;54.37
44441;BME280;30146;52.268;20.944;2023-08-06T06:54:32;98532.17;;;32.80;55.11
44441;BME280;30146;52.268;20.944;2023-08-06T06:57:04;98532.36;;;33.14;54.63
44441;BME280;30146;52.268;20.944;2023-08-06T06:59:35;98533.85;;;33.43;53.56
44441;BME280;30146;52.268;20.944;2023-08-06T07:02:08;98532.86;;;33.54;52.35
44441;BME280;30146;52.268;20.944;2023-08-06T07:04:40;98533.01;;;33.72;52.34
44441;BME280;30146;52.268;20.944;2023-08-06T07:07:11;98535.60;;;33.84;51.39
44441;BME280;30146;52.268;20.944;2023-08-06T07:09:42;98537.86;;;33.79;50.20
44441;BME280;30146;52.268;20.944;2023-08-06T07:12:13;98535.85;;;33.65;49.77
44441;BME280;30146;52.268;20.944;2023-08-06T07:14:46;98534.10;;;33.48;49.49
44441;BME280;30146;52.268;20.944;2023-08-06T07:17:18;98534.90;;;33.30;49.59
44441;BME280;30146;52.268;20.944;2023-08-06T07:19:49;98543.72;;;33.02;48.93
44441;BME280;30146;52.268;20.944;2023-08-06T07:22:20;98533.11;;;32.63;49.28
44441;BME280;30146;52.268;20.944;2023-08-06T07:24:51;98537.16;;;32.36;50.00
44441;BME280;30146;52.268;20.944;2023-08-06T07:27:23;98528.50;;;31.96;49.67
44441;BME280;30146;52.268;20.944;2023-08-06T07:29:54;98529.78;;;31.62;50.42
44441;BME280;30146;52.268;20.944;2023-08-06T07:32:26;98531.27;;;31.32;50.41
44441;BME280;30146;52.268;20.944;2023-08-06T07:34:58;98526.64;;;31.02;50.85
44441;BME280;30146;52.268;20.944;2023-08-06T07:37:30;98522.71;;;30.77;51.53
44441;BME280;30146;52.268;20.944;2023-08-06T07:40:01;98524.01;;;30.67;52.38
44441;BME280;30146;52.268;20.944;2023-08-06T07:42:34;98521.53;;;30.67;52.68
44441;BME280;30146;52.268;20.944;2023-08-06T07:45:10;98514.96;;;30.66;52.73
44441;BME280;30146;52.268;20.944;2023-08-06T07:47:41;98519.38;;;30.55;52.19
44441;BME280;30146;52.268;20.944;2023-08-06T07:50:14;98519.58;;;30.33;51.70
44441;BME280;30146;52.268;20.944;2023-08-06T07:52:45;98517.16;;;30.00;51.66
44441;BME280;30146;52.268;20.944;2023-08-06T07:55:18;98523.95;;;29.72;51.83
44441;BME280;30146;52.268;20.944;2023-08-06T07:57:49;98521.70;;;29.43;51.81
44441;BME280;30146;52.268;20.944;2023-08-06T08:00:20;98516.15;;;29.31;52.89
44441;BME280;30146;52.268;20.944;2023-08-06T08:02:54;98516.23;;;29.31;53.54
44441;BME280;30146;52.268;20.944;2023-08-06T08:05:25;98517.38;;;29.40;53.67
44441;BME280;30146;52.268;20.944;2023-08-06T08:07:56;98512.80;;;29.52;53.89
44441;BME280;30146;52.268;20.944;2023-08-06T08:10:27;98506.60;;;29.64;54.11
44441;BME280;30146;52.268;20.944;2023-08-06T08:13:01;98510.33;;;29.70;53.75
44441;BME280;30146;52.268;20.944;2023-08-06T08:15:35;98504.13;;;29.58;53.01
44441;BME280;30146;52.268;20.944;2023-08-06T08:18:06;98502.91;;;29.55;53.27
44441;BME280;30146;52.268;20.944;2023-08-06T08:20:37;98496.98;;;29.53;53.51
44441;BME280;30146;52.268;20.944;2023-08-06T08:23:08;98493.02;;;29.55;53.57
44441;BME280;30146;52.268;20.944;2023-08-06T08:25:39;98489.60;;;29.58;53.65
44441;BME280;30146;52.268;20.944;2023-08-06T08:28:10;98492.22;;;29.64;54.06
44441;BME280;30146;52.268;20.944;2023-08-06T08:30:43;98489.65;;;29.72;54.02
44441;BME280;30146;52.268;20.944;2023-08-06T08:33:23;98489.46;;;29.75;53.48
44441;BME280;30146;52.268;20.944;2023-08-06T08:35:54;98483.38;;;29.71;53.22
44441;BME280;30146;52.268;20.944;2023-08-06T08:38:26;98480.75;;;29.69;53.07
44441;BME280;30146;52.268;20.944;2023-08-06T08:40:58;98478.52;;;29.66;52.98
44441;BME280;30146;52.268;20.944;2023-08-06T08:43:30;98472.64;;;29.68;53.43
44441;BME280;30146;52.268;20.944;2023-08-06T08:46:03;98469.83;;;29.73;53.22
44441;BME280;30146;52.268;20.944;2023-08-06T08:48:38;98478.02;;;29.71;53.21
44441;BME280;30146;52.268;20.944;2023-08-06T08:51:13;98472.27;;;29.61;53.13
44441;BME280;30146;52.268;20.944;2023-08-06T08:53:45;98471.77;;;29.55;53.07
44441;BME280;30146;52.268;20.944;2023-08-06T08:56:17;98474.73;;;29.48;53.31
44441;BME280;30146;52.268;20.944;2023-08-06T08:58:49;98468.80;;;29.44;53.33
44441;BME280;30146;52.268;20.944;2023-08-06T09:01:21;98474.70;;;29.44;53.06
44441;BME280;30146;52.268;20.944;2023-08-06T09:03:55;98465.19;;;29.36;52.95
44441;BME280;30146;52.268;20.944;2023-08-06T09:06:27;98463.81;;;29.28;53.01
44441;BME280;30146;52.268;20.944;2023-08-06T09:09:05;98452.56;;;29.22;53.08
44441;BME280;30146;52.268;20.944;2023-08-06T09:11:42;98449.05;;;29.19;53.56
44441;BME280;30146;52.268;20.944;2023-08-06T09:14:14;98448.89;;;29.21;53.53
44441;BME280;30146;52.268;20.944;2023-08-06T09:16:46;98449.23;;;29.19;53.43
44441;BME280;30146;52.268;20.944;2023-08-06T09:19:17;98437.41;;;29.16;53.31
44441;BME280;30146;52.268;20.944;2023-08-06T09:21:50;98435.86;;;29.19;53.43
44441;BME280;30146;52.268;20.944;2023-08-06T09:24:23;98434.21;;;29.23;53.60
44441;BME280;30146;52.268;20.944;2023-08-06T09:26:55;98431.50;;;29.29;53.59
44441;BME280;30146;52.268;20.944;2023-08-06T09:29:32;98436.84;;;29.39;53.52
44441;BME280;30146;52.268;20.944;2023-08-06T09:32:04;98424.23;;;29.48;53.13
44441;BME280;30146;52.268;20.944;2023-08-06T09:34:35;98428.17;;;29.57;53.23
44441;BME280;30146;52.268;20.944;2023-08-06T09:37:10;98422.84;;;29.64;52.98
44441;BME280;30146;52.268;20.944;2023-08-06T09:39:41;98425.02;;;29.60;52.76
44441;BME280;30146;52.268;20.944;2023-08-06T09:42:16;98415.27;;;29.58;52.84
44441;BME280;30146;52.268;20.944;2023-08-06T09:44:47;98424.14;;;29.55;52.87
44441;BME280;30146;52.268;20.944;2023-08-06T09:47:18;98421.38;;;29.52;52.75
44441;BME280;30146;52.268;20.944;2023-08-06T09:49:53;98423.30;;;29.48;52.76
44441;BME280;30146;52.268;20.944;2023-08-06T09:52:27;98416.25;;;29.48;52.73
44441;BME280;30146;52.268;20.944;2023-08-06T09:55:01;98420.50;;;29.48;52.54
44441;BME280;30146;52.268;20.944;2023-08-06T09:57:33;98421.50;;;29.47;52.48
44441;BME280;30146;52.268;20.944;2023-08-06T10:00:07;98413.84;;;29.48;52.10
44441;BME280;30146;52.268;20.944;2023-08-06T10:02:43;98405.42;;;29.53;52.17
44441;BME280;30146;52.268;20.944;2023-08-06T10:05:20;98411.02;;;29.63;52.07
44441;BME280;30146;52.268;20.944;2023-08-06T10:07:52;98391.72;;;29.66;52.13
44441;BME280;30146;52.268;20.944;2023-08-06T10:10:26;98394.63;;;29.71;52.23
44441;BME280;30146;52.268;20.944;2023-08-06T10:13:00;98391.61;;;29.79;52.01
44441;BME280;30146;52.268;20.944;2023-08-06T10:15:33;98386.63;;;29.83;52.33
44441;BME280;30146;52.268;20.944;2023-08-06T10:18:06;98389.46;;;29.87;51.82
44441;BME280;30146;52.268;20.944;2023-08-06T10:20:41;98383.69;;;29.86;51.43
44441;BME280;30146;52.268;20.944;2023-08-06T10:23:12;98388.23;;;29.86;51.32
44441;BME280;30146;52.268;20.944;2023-08-06T10:25:44;98379.79;;;29.85;51.25
44441;BME280;30146;52.268;20.944;2023-08-06T10:28:38;98378.04;;;29.89;51.52
44441;BME280;30146;52.268;20.944;2023-08-06T10:34:22;98364.17;;;30.05;51.18
44441;BME280;30146;52.268;20.944;2023-08-06T10:36:58;98369.30;;;30.06;50.70
44441;BME280;30146;52.268;20.944;2023-08-06T10:39:30;98366.95;;;30.04;50.41
44441;BME280;30146;52.268;20.944;2023-08-06T10:42:23;98356.16;;;29.94;50.21
44441;BME280;30146;52.268;20.944;2023-08-06T10:45:18;98352.73;;;29.96;50.23
44441;BME280;30146;52.268;20.944;2023-08-06T10:48:33;98352.39;;;29.99;49.91
44441;BME280;30146;52.268;20.944;2023-08-06T10:51:30;98349.58;;;29.86;49.79
44441;BME280;30146;52.268;20.944;2023-08-06T10:54:01;98349.58;;;29.75;49.66
44441;BME280;30146;52.268;20.944;2023-08-06T10:56:41;98348.81;;;29.63;49.76
44441;BME280;30146;52.268;20.944;2023-08-06T10:59:16;98343.84;;;29.57;49.72
44441;BME280;30146;52.268;20.944;2023-08-06T11:01:49;98332.84;;;29.55;50.02
44441;BME280;30146;52.268;20.944;2023-08-06T11:04:47;98331.27;;;29.56;49.97
44441;BME280;30146;52.268;20.944;2023-08-06T11:07:18;98329.84;;;29.55;49.99
44441;BME280;30146;52.268;20.944;2023-08-06T11:09:53;98321.03;;;29.57;49.87
44441;BME280;30146;52.268;20.944;2023-08-06T11:12:24;98318.28;;;29.56;50.30
44441;BME280;30146;52.268;20.944;2023-08-06T11:14:55;98315.75;;;29.55;50.15
44441;BME280;30146;52.268;20.944;2023-08-06T11:17:41;98317.34;;;29.49;49.74
44441;BME280;30146;52.268;20.944;2023-08-06T11:20:13;98307.40;;;29.40;49.77
44441;BME280;30146;52.268;20.944;2023-08-06T11:23:02;98305.17;;;29.36;49.68
44441;BME280;30146;52.268;20.944;2023-08-06T11:25:45;98296.86;;;29.41;49.84
44441;BME280;30146;52.268;20.944;2023-08-06T11:28:22;98291.35;;;29.49;49.73
44441;BME280;30146;52.268;20.944;2023-08-06T11:31:42;98284.64;;;29.52;49.87
44441;BME280;30146;52.268;20.944;2023-08-06T11:34:34;98287.96;;;29.48;49.70
44441;BME280;30146;52.268;20.944;2023-08-06T11:37:06;98291.41;;;29.41;49.49
44441;BME280;30146;52.268;20.944;2023-08-06T11:39:38;98283.02;;;29.33;49.38
44441;BME280;30146;52.268;20.944;2023-08-06T11:42:09;98280.29;;;29.27;49.49
44441;BME280;30146;52.268;20.944;2023-08-06T11:44:45;98277.02;;;29.28;49.80
44441;BME280;30146;52.268;20.944;2023-08-06T11:47:17;98275.44;;;29.35;49.90
44441;BME280;30146;52.268;20.944;2023-08-06T11:49:50;98273.05;;;29.43;49.49
44441;BME280;30146;52.268;20.944;2023-08-06T11:52:23;98264.17;;;29.50;49.60
44441;BME280;30146;52.268;20.944;2023-08-06T11:55:05;98262.91;;;29.57;49.38
44441;BME280;30146;52.268;20.944;2023-08-06T11:57:38;98253.34;;;29.62;49.29
44441;BME280;30146;52.268;20.944;2023-08-06T12:00:12;98260.00;;;29.67;49.01
44441;BME280;30146;52.268;20.944;2023-08-06T12:02:48;98250.45;;;29.67;48.72
44441;BME280;30146;52.268;20.944;2023-08-06T12:05:23;98252.44;;;29.65;48.67
44441;BME280;30146;52.268;20.944;2023-08-06T12:07:56;98241.77;;;29.60;48.47
44441;BME280;30146;52.268;20.944;2023-08-06T12:10:30;98242.79;;;29.54;48.15
44441;BME280;30146;52.268;20.944;2023-08-06T12:13:02;98244.69;;;29.48;48.14
44441;BME280;30146;52.268;20.944;2023-08-06T12:15:34;98243.09;;;29.42;47.97
44441;BME280;30146;52.268;20.944;2023-08-06T12:18:05;98238.82;;;29.37;47.80
44441;BME280;30146;52.268;20.944;2023-08-06T12:20:38;98244.46;;;29.32;47.84
44441;BME280;30146;52.268;20.944;2023-08-06T12:23:09;98248.73;;;29.29;47.67
44441;BME280;30146;52.268;20.944;2023-08-06T12:25:45;98246.52;;;29.24;47.62
44441;BME280;30146;52.268;20.944;2023-08-06T12:28:16;98244.39;;;29.19;47.63
44441;BME280;30146;52.268;20.944;2023-08-06T12:30:49;98248.05;;;29.14;47.78
44441;BME280;30146;52.268;20.944;2023-08-06T12:33:25;98246.25;;;29.10;47.93
44441;BME280;30146;52.268;20.944;2023-08-06T12:35:56;98235.18;;;29.05;48.13
44441;BME280;30146;52.268;20.944;2023-08-06T12:38:29;98244.21;;;29.00;48.12
44441;BME280;30146;52.268;20.944;2023-08-06T12:41:03;98243.41;;;28.94;48.14
44441;BME280;30146;52.268;20.944;2023-08-06T12:43:35;98243.74;;;28.88;48.11
44441;BME280;30146;52.268;20.944;2023-08-06T12:46:07;98244.84;;;28.82;48.21
44441;BME280;30146;52.268;20.944;2023-08-06T12:48:38;98240.82;;;28.75;48.10
44441;BME280;30146;52.268;20.944;2023-08-06T12:51:10;98238.98;;;28.69;48.30
44441;BME280;30146;52.268;20.944;2023-08-06T12:53:41;98225.73;;;28.64;48.22
44441;BME280;30146;52.268;20.944;2023-08-06T12:56:12;98225.54;;;28.58;48.50
44441;BME280;30146;52.268;20.944;2023-08-06T12:58:45;98235.55;;;28.53;48.43
44441;BME280;30146;52.268;20.944;2023-08-06T13:01:17;98242.66;;;28.49;48.42
44441;BME280;30146;52.268;20.944;2023-08-06T13:03:48;98237.71;;;28.47;48.47
44441;BME280;30146;52.268;20.944;2023-08-06T13:06:21;98243.08;;;28.44;48.60
44441;BME280;30146;52.268;20.944;2023-08-06T13:08:52;98245.55;;;28.41;48.46
44441;BME280;30146;52.268;20.944;2023-08-06T13:11:24;98235.79;;;28.39;48.50
44441;BME280;30146;52.268;20.944;2023-08-06T13:13:56;98244.27;;;28.37;48.51
44441;BME280;30146;52.268;20.944;2023-08-06T13:16:27;98242.08;;;28.35;48.49
44441;BME280;30146;52.268;20.944;2023-08-06T13:18:59;98241.97;;;28.36;48.83
44441;BME280;30146;52.268;20.944;2023-08-06T13:21:34;98239.55;;;28.37;49.05
44441;BME280;30146;52.268;20.944;2023-08-06T13:24:06;98248.08;;;28.37;49.16